LFBI/PIS METAR and TAF weather

Enter ICAO airport designator
Station Type Date Time Source
LFBI METAR 2020/04/09 20:00 UTC NOAA

LFBI 092000Z AUTO 04004KT CAVOK 18/06 Q1020


Station Type Date Time Source
LFBI Decoded METAR 2020/04/09 20:00 UTC NOAA

Poitiers, France (LFBI) 46-35N 000-19E 120M
Apr 09, 2020 - 04:00 PM EDT / 2020.04.09 2000 UTC
Wind: from the NE (040 degrees) at 5 MPH (4 KT):0
Visibility: greater than 7 mile(s):0
Temperature: 64 F (18 C)
Dew Point: 42 F (6 C)
Relative Humidity: 45%
Pressure (altimeter): 30.12 in. Hg (1020 hPa)
ob: LFBI 092000Z AUTO 04004KT CAVOK 18/06 Q1020
cycle: 20

Station Type Date Time Source
LFBI TAF 2020/03/27 18:42 UTC NOAA

TAF TAF LFBI 271836Z 2718/2818 CNL

Example: see airport list